createdAt,value
2022-11-24T00:01:21.675Z,14.40
2022-11-24T00:04:29.639Z,12.73
2022-11-24T00:07:39.627Z,14.13
2022-11-24T00:10:47.640Z,14.32
2022-11-24T00:13:57.886Z,12.50
2022-11-24T00:17:12.695Z,12.65
2022-11-24T00:20:21.680Z,12.73
2022-11-24T00:23:36.682Z,14.80
2022-11-24T00:26:44.707Z,21.08
2022-11-24T00:29:53.305Z,17.42
2022-11-24T00:33:01.689Z,20.23
2022-11-24T00:43:39.657Z,20.23
2022-11-24T00:46:54.723Z,22.55
2022-11-24T00:50:03.702Z,23.05
2022-11-24T00:53:18.699Z,26.10
2022-11-24T00:56:26.722Z,24.10
2022-11-24T00:59:38.315Z,26.42
2022-11-24T01:02:46.736Z,24.70
2022-11-24T01:06:20.688Z,24.30
2022-11-24T01:09:29.638Z,23.17
2022-11-24T01:12:38.271Z,20.67
2022-11-24T01:15:46.712Z,19.50
2022-11-24T01:19:02.720Z,21.48
2022-11-24T01:22:11.754Z,21.25
2022-11-24T01:25:26.662Z,20.07
2022-11-24T01:28:47.174Z,23.03
2022-11-24T01:31:56.385Z,20.88
2022-11-24T01:35:04.689Z,21.75
2022-11-24T01:38:19.719Z,19.80
2022-11-24T01:41:30.667Z,19.17
2022-11-24T01:44:47.686Z,19.83
2022-11-24T01:47:55.718Z,19.92
2022-11-24T01:51:17.674Z,20.88
2022-11-24T01:54:26.768Z,21.12
2022-11-24T01:57:47.701Z,19.90
2022-11-24T02:00:50.961Z,20.00
2022-11-24T02:04:07.714Z,21.90
2022-11-24T02:07:12.454Z,22.48
2022-11-24T02:10:28.686Z,19.50
2022-11-24T02:13:37.698Z,19.07
2022-11-24T02:16:55.713Z,24.20
2022-11-24T02:20:07.707Z,22.50
2022-11-24T02:23:37.464Z,23.05
2022-11-24T02:26:52.714Z,19.00
2022-11-24T02:30:01.395Z,24.13
2022-11-24T02:33:18.701Z,30.33
2022-11-24T02:36:33.720Z,23.27
2022-11-24T02:39:48.698Z,20.45
2022-11-24T02:42:54.358Z,24.00
2022-11-24T02:46:08.754Z,25.67
2022-11-24T02:49:16.706Z,35.10
2022-11-24T02:52:32.736Z,24.63
2022-11-24T02:55:34.492Z,31.37
2022-11-24T02:58:48.773Z,27.42
2022-11-24T03:01:51.021Z,29.23
2022-11-24T03:05:05.716Z,32.33
2022-11-24T03:08:13.745Z,28.98
2022-11-24T03:11:28.731Z,41.55
2022-11-24T03:14:39.243Z,41.70
2022-11-24T03:17:48.690Z,36.50
2022-11-24T03:20:57.723Z,41.93
2022-11-24T03:24:06.340Z,41.97
2022-11-24T03:27:14.771Z,39.03
2022-11-24T03:30:29.784Z,38.60
2022-11-24T03:33:31.584Z,39.63
2022-11-24T03:36:46.759Z,43.20
2022-11-24T03:39:55.737Z,43.20
2022-11-24T03:43:04.453Z,42.20
2022-11-24T03:46:12.769Z,46.17
2022-11-24T03:49:27.774Z,43.27
2022-11-24T03:52:30.686Z,40.70
2022-11-24T03:55:45.742Z,41.37
2022-11-24T03:58:47.556Z,50.78
2022-11-24T04:02:02.830Z,41.90
2022-11-24T04:05:18.763Z,45.30
2022-11-24T04:08:27.286Z,43.97
2022-11-24T04:11:35.758Z,45.42
2022-11-24T04:14:50.751Z,47.75
2022-11-24T04:18:01.728Z,46.72
2022-11-24T04:21:10.313Z,49.53
2022-11-24T04:24:21.782Z,49.53
2022-11-24T04:27:38.734Z,42.75
2022-11-24T04:30:47.832Z,43.87
2022-11-24T04:33:56.441Z,51.35
2022-11-24T04:37:04.739Z,55.47
2022-11-24T04:40:13.522Z,49.97
2022-11-24T04:43:21.798Z,45.05
2022-11-24T04:46:36.864Z,51.00
2022-11-24T04:49:47.734Z,52.78
2022-11-24T04:53:02.799Z,51.67
2022-11-24T04:56:06.117Z,54.37
2022-11-24T04:59:20.774Z,52.60
2022-11-24T05:02:29.485Z,55.17
2022-11-24T05:05:44.826Z,48.30
2022-11-24T05:08:53.383Z,56.43
2022-11-24T05:12:01.780Z,57.60
2022-11-24T05:15:10.706Z,55.67
2022-11-24T05:18:20.829Z,55.85
2022-11-24T05:21:35.805Z,60.78
2022-11-24T05:24:50.813Z,60.17
2022-11-24T05:28:01.499Z,55.90
2022-11-24T05:31:10.864Z,55.00
2022-11-24T05:34:19.434Z,54.13
2022-11-24T05:37:27.866Z,62.17
2022-11-24T05:40:43.837Z,58.10
2022-11-24T05:43:51.848Z,57.87
2022-11-24T05:47:06.841Z,55.17
2022-11-24T05:50:18.491Z,50.20
2022-11-24T05:53:26.798Z,57.40
2022-11-24T05:56:35.415Z,54.40
2022-11-24T05:59:43.787Z,55.87
2022-11-24T06:02:52.634Z,50.85
2022-11-24T06:06:07.785Z,50.75
2022-11-24T06:09:16.626Z,51.70
2022-11-24T06:12:31.817Z,50.80
2022-11-24T06:15:40.401Z,35.30
2022-11-24T06:18:48.815Z,44.97
2022-11-24T06:21:57.593Z,47.78
2022-11-24T06:25:05.810Z,47.22
2022-11-24T06:28:20.879Z,42.80
2022-11-24T06:31:22.749Z,44.50
2022-11-24T06:34:37.822Z,42.75
2022-11-24T06:37:46.388Z,46.20
2022-11-24T06:40:54.898Z,44.95
2022-11-24T06:44:10.890Z,44.37
2022-11-24T06:47:25.798Z,43.90
2022-11-24T06:50:33.968Z,44.88
2022-11-24T06:53:48.846Z,41.00
2022-11-24T06:56:56.344Z,37.22
2022-11-24T07:00:12.858Z,48.20
2022-11-24T07:03:35.197Z,45.77
2022-11-24T07:06:50.851Z,44.35
2022-11-24T07:10:05.902Z,51.55
2022-11-24T07:13:14.410Z,44.95
2022-11-24T07:16:25.935Z,46.97
2022-11-24T07:19:40.864Z,50.93
2022-11-24T07:22:49.802Z,44.40
2022-11-24T07:26:01.211Z,47.47
2022-11-24T07:29:20.847Z,47.97
2022-11-24T07:32:28.843Z,40.40
2022-11-24T07:35:43.876Z,43.73
2022-11-24T07:38:52.921Z,47.97
2022-11-24T07:42:01.729Z,45.95
2022-11-24T07:45:09.957Z,43.38
2022-11-24T07:48:18.428Z,39.10
2022-11-24T07:51:26.878Z,47.37
2022-11-24T07:54:41.839Z,45.72
2022-11-24T07:57:49.867Z,43.13
2022-11-24T08:01:05.967Z,50.10
2022-11-24T08:04:08.240Z,63.03
2022-11-24T08:07:29.928Z,45.07
2022-11-24T08:10:32.197Z,42.25
2022-11-24T08:13:47.905Z,36.90
2022-11-24T08:16:55.968Z,35.55
2022-11-24T08:20:05.174Z,32.77
2022-11-24T08:23:13.910Z,54.80
2022-11-24T08:26:29.844Z,41.90
2022-11-24T08:29:37.882Z,45.50
2022-11-24T08:32:52.927Z,38.00
2022-11-24T08:35:58.143Z,33.97
2022-11-24T08:39:13.014Z,32.73
2022-11-24T08:42:21.626Z,35.22
2022-11-24T08:45:41.418Z,32.22
2022-11-24T08:48:53.446Z,42.67
2022-11-24T08:52:04.935Z,40.93
2022-11-24T08:55:13.582Z,31.40
2022-11-24T08:58:21.918Z,46.75
2022-11-24T09:01:38.068Z,80.25
2022-11-24T09:04:52.976Z,60.55
2022-11-24T09:08:04.678Z,55.87
2022-11-24T09:11:16.926Z,40.90
2022-11-24T09:14:25.752Z,37.75
2022-11-24T09:17:33.899Z,38.95
2022-11-24T09:20:42.845Z,31.08
2022-11-24T09:23:54.141Z,40.03
2022-11-24T09:27:02.501Z,36.97
2022-11-24T09:30:11.172Z,33.50
2022-11-24T09:33:20.742Z,37.67
2022-11-24T09:36:35.920Z,51.67
2022-11-24T09:39:44.626Z,41.17
2022-11-24T09:43:10.115Z,36.27
2022-11-24T09:46:39.032Z,46.30
2022-11-24T09:50:06.011Z,39.97
2022-11-24T09:53:36.009Z,39.92
2022-11-24T09:57:06.131Z,48.50
2022-11-24T10:00:22.000Z,41.80
2022-11-24T10:03:46.165Z,40.92
2022-11-24T10:07:29.245Z,37.75
2022-11-24T10:10:49.884Z,33.53
2022-11-24T10:14:29.920Z,57.30
2022-11-24T10:17:56.960Z,42.33
2022-11-24T10:21:31.894Z,37.15
2022-11-24T10:25:05.007Z,39.50
2022-11-24T10:28:13.290Z,49.08
2022-11-24T10:31:42.975Z,39.60
2022-11-24T10:34:53.882Z,42.90
2022-11-24T10:38:30.521Z,35.33
2022-11-24T10:41:57.929Z,39.30
2022-11-24T10:45:14.545Z,37.97
2022-11-24T10:48:31.963Z,35.43
2022-11-24T10:52:06.003Z,31.73
2022-11-24T10:55:15.994Z,39.65
2022-11-24T10:58:31.552Z,36.00
2022-11-24T11:01:43.045Z,36.95
2022-11-24T11:05:25.994Z,38.60
2022-11-24T11:08:34.679Z,37.20
2022-11-24T11:11:49.202Z,34.38
2022-11-24T11:14:51.327Z,27.00
2022-11-24T11:18:08.991Z,30.00
2022-11-24T11:21:37.920Z,29.90
2022-11-24T11:24:49.042Z,37.47
2022-11-24T11:28:18.703Z,33.00
2022-11-24T11:31:28.453Z,30.00
2022-11-24T11:34:37.172Z,28.45
2022-11-24T11:37:46.034Z,30.67
2022-11-24T11:41:00.966Z,28.37
2022-11-24T11:44:34.343Z,29.02
2022-11-24T11:48:09.232Z,26.12
2022-11-24T11:51:38.089Z,26.10
2022-11-24T11:55:21.035Z,26.90
2022-11-24T11:58:46.687Z,31.23
2022-11-24T12:02:20.180Z,23.25
2022-11-24T12:05:54.028Z,29.23
2022-11-24T12:09:22.114Z,24.35
2022-11-24T12:13:10.003Z,21.70
2022-11-24T12:16:35.084Z,21.20
2022-11-24T12:20:02.017Z,25.00
2022-11-24T12:23:37.998Z,19.98
2022-11-24T12:27:00.151Z,16.30
2022-11-24T12:30:20.114Z,17.27
2022-11-24T12:33:52.327Z,20.73
2022-11-24T12:37:19.766Z,20.35
2022-11-24T12:40:55.230Z,18.73
2022-11-24T12:44:48.983Z,17.05
2022-11-24T12:48:21.985Z,21.43
2022-11-24T12:51:31.317Z,18.57
2022-11-24T12:54:50.075Z,19.87
2022-11-24T12:58:10.641Z,18.05
2022-11-24T13:01:48.368Z,18.17
2022-11-24T13:05:08.136Z,16.37
2022-11-24T13:08:17.432Z,19.93
2022-11-24T13:11:41.134Z,15.98
2022-11-24T13:14:57.012Z,17.65
2022-11-24T13:18:07.185Z,21.10
2022-11-24T13:21:38.062Z,17.50
2022-11-24T13:25:19.031Z,17.63
2022-11-24T13:29:01.881Z,18.42
2022-11-24T13:32:58.078Z,15.80
2022-11-24T13:36:38.116Z,21.35
2022-11-24T13:39:58.129Z,14.60
2022-11-24T13:43:20.435Z,21.50
2022-11-24T13:46:58.676Z,15.20
2022-11-24T13:50:17.086Z,12.82
2022-11-24T13:53:42.078Z,18.62
2022-11-24T13:56:43.832Z,13.93
2022-11-24T14:00:08.171Z,11.43
2022-11-24T14:03:27.117Z,18.35
2022-11-24T14:06:55.106Z,22.35
2022-11-24T14:09:57.926Z,18.00
2022-11-24T14:13:37.086Z,16.77
2022-11-24T14:16:45.892Z,20.80
2022-11-24T14:19:57.146Z,15.43
2022-11-24T14:23:17.094Z,14.82
2022-11-24T14:26:32.634Z,27.67
2022-11-24T14:30:02.176Z,16.97
2022-11-24T14:33:18.093Z,18.37
2022-11-24T14:36:33.113Z,16.62
2022-11-24T14:39:42.985Z,13.82
2022-11-24T14:42:57.058Z,17.83
2022-11-24T14:46:09.765Z,19.87
2022-11-24T14:49:25.066Z,18.30
2022-11-24T14:52:41.082Z,18.58
2022-11-24T14:55:43.214Z,17.92
2022-11-24T14:58:59.317Z,14.90
2022-11-24T15:02:34.173Z,14.83
2022-11-24T15:06:01.038Z,15.00
2022-11-24T15:09:29.080Z,17.55
2022-11-24T15:12:55.109Z,22.33
2022-11-24T15:16:03.181Z,22.67
2022-11-24T15:19:23.138Z,17.60
2022-11-24T15:22:45.858Z,18.87
2022-11-24T15:26:03.063Z,25.17
2022-11-24T15:29:12.945Z,20.67
2022-11-24T15:32:22.086Z,23.98
2022-11-24T15:35:32.728Z,18.33
2022-11-24T15:38:41.239Z,22.37
2022-11-24T15:41:56.116Z,19.40
2022-11-24T15:44:57.987Z,24.83
2022-11-24T15:48:17.759Z,27.87
2022-11-24T15:51:27.150Z,23.93
2022-11-24T15:54:35.926Z,21.40
2022-11-24T15:57:44.057Z,24.73
2022-11-24T16:00:52.745Z,21.23
2022-11-24T16:04:08.090Z,30.00
2022-11-24T16:07:19.127Z,25.87
2022-11-24T16:10:38.090Z,31.07
2022-11-24T16:13:40.255Z,23.25
2022-11-24T16:16:55.081Z,27.67
2022-11-24T16:20:03.166Z,29.02
2022-11-24T16:23:18.187Z,26.57
2022-11-24T16:26:33.155Z,29.40
2022-11-24T16:29:38.327Z,29.65
2022-11-24T16:32:53.105Z,29.98
2022-11-24T16:36:01.164Z,28.12
2022-11-24T16:39:09.818Z,35.20
2022-11-24T16:42:18.537Z,25.07
2022-11-24T16:45:38.466Z,31.23
2022-11-24T16:48:51.420Z,45.40
2022-11-24T16:52:00.094Z,26.10
2022-11-24T16:55:09.155Z,29.53
2022-11-24T16:58:25.105Z,43.43
2022-11-24T17:01:27.277Z,26.12
2022-11-24T17:04:42.143Z,29.05
2022-11-24T17:07:50.443Z,31.08
2022-11-24T17:11:11.401Z,24.70
2022-11-24T17:14:26.190Z,23.60
2022-11-24T17:17:28.238Z,29.25
2022-11-24T17:20:43.160Z,28.65
2022-11-24T17:23:45.340Z,35.25
2022-11-24T17:27:00.131Z,26.10
2022-11-24T17:30:08.121Z,27.03
2022-11-24T17:33:16.762Z,31.83
2022-11-24T17:36:32.124Z,32.92
2022-11-24T17:39:34.002Z,30.48
2022-11-24T17:42:49.286Z,29.37
2022-11-24T17:46:01.340Z,37.37
2022-11-24T17:49:16.210Z,32.75
2022-11-24T17:52:18.126Z,31.45
2022-11-24T17:55:33.202Z,26.87
2022-11-24T17:58:41.323Z,33.57
2022-11-24T18:01:58.299Z,31.50
2022-11-24T18:05:07.174Z,32.70
2022-11-24T18:08:29.193Z,29.40
2022-11-24T18:11:38.200Z,29.83
2022-11-24T18:14:53.297Z,27.87
2022-11-24T18:18:02.234Z,33.87
2022-11-24T18:21:16.321Z,29.42
2022-11-24T18:24:25.158Z,35.72
2022-11-24T18:27:33.747Z,28.42
2022-11-24T18:30:43.186Z,30.73
2022-11-24T18:33:51.805Z,30.43
2022-11-24T18:37:00.167Z,31.00
2022-11-24T18:40:16.204Z,30.02
2022-11-24T18:43:17.963Z,28.90
2022-11-24T18:46:33.237Z,33.40
2022-11-24T18:49:35.272Z,28.87
2022-11-24T18:52:57.197Z,34.20
2022-11-24T18:56:13.158Z,31.93
2022-11-24T18:59:21.277Z,28.23
2022-11-24T19:02:29.946Z,29.30
2022-11-24T19:05:47.237Z,31.73
2022-11-24T19:09:04.225Z,36.42
2022-11-24T19:12:13.797Z,32.00
2022-11-24T19:15:22.165Z,34.63
2022-11-24T19:18:30.934Z,28.05
2022-11-24T19:21:42.192Z,29.83
2022-11-24T19:24:50.814Z,28.80
2022-11-24T19:27:59.196Z,28.03
2022-11-24T19:31:10.905Z,31.63
2022-11-24T19:34:19.169Z,30.85
2022-11-24T19:37:28.546Z,26.58
2022-11-24T19:40:37.199Z,31.50
2022-11-24T19:43:53.182Z,31.43
2022-11-24T19:47:01.155Z,30.33
2022-11-24T19:50:17.195Z,29.10
2022-11-24T19:53:19.046Z,31.65
2022-11-24T19:56:37.230Z,29.33
2022-11-24T19:59:52.198Z,33.73
2022-11-24T20:03:01.311Z,32.77
2022-11-24T20:06:23.268Z,34.85
2022-11-24T20:09:38.238Z,27.98
2022-11-24T20:12:53.193Z,30.67
2022-11-24T20:16:01.322Z,32.53
2022-11-24T20:19:12.481Z,27.93
2022-11-24T20:22:21.213Z,33.03
2022-11-24T20:25:36.242Z,31.70
2022-11-24T20:28:38.399Z,25.65
2022-11-24T20:31:56.234Z,27.43
2022-11-24T20:34:57.986Z,32.10
2022-11-24T20:38:15.222Z,29.98
2022-11-24T20:41:27.629Z,25.42
2022-11-24T20:44:42.215Z,32.83
2022-11-24T20:47:44.061Z,28.77
2022-11-24T20:50:59.185Z,31.87
2022-11-24T20:54:04.642Z,28.20
2022-11-24T20:57:19.478Z,28.67
2022-11-24T21:00:21.742Z,30.05
2022-11-24T21:03:39.800Z,36.37
2022-11-24T21:06:51.741Z,30.97
2022-11-24T21:10:06.261Z,32.05
2022-11-24T21:13:08.374Z,49.17
2022-11-24T21:16:26.276Z,27.90
2022-11-24T21:19:36.017Z,26.87
2022-11-24T21:22:51.228Z,28.23
2022-11-24T21:25:52.967Z,28.25
2022-11-24T21:29:07.232Z,29.85
2022-11-24T21:32:15.222Z,28.45
2022-11-24T21:35:23.789Z,31.73
2022-11-24T21:38:39.201Z,26.70
2022-11-24T21:41:48.245Z,30.10
2022-11-24T21:45:03.218Z,28.30
2022-11-24T21:48:05.581Z,30.20
2022-11-24T21:51:22.263Z,32.73
2022-11-24T21:54:39.626Z,29.23
2022-11-24T21:57:48.214Z,28.30
2022-11-24T22:01:06.604Z,27.02
2022-11-24T22:04:21.251Z,25.85
2022-11-24T22:07:32.060Z,28.57
2022-11-24T22:10:48.286Z,27.13
2022-11-24T22:13:52.126Z,29.65
2022-11-24T22:17:07.262Z,31.33
2022-11-24T22:20:22.335Z,31.25
2022-11-24T22:23:31.357Z,28.40
2022-11-24T22:26:46.366Z,31.03
2022-11-24T22:29:54.425Z,29.75
2022-11-24T22:33:02.874Z,29.75
2022-11-24T22:36:11.257Z,30.55
2022-11-24T22:39:35.266Z,25.10
2022-11-24T22:42:43.254Z,28.90
2022-11-24T22:45:54.892Z,30.25
2022-11-24T22:49:09.226Z,30.23
2022-11-24T22:52:17.305Z,29.77
2022-11-24T22:55:25.937Z,26.63
2022-11-24T22:58:34.214Z,27.30
2022-11-24T23:01:49.297Z,25.40
2022-11-24T23:04:57.327Z,27.02
2022-11-24T23:08:12.558Z,29.73
2022-11-24T23:11:29.128Z,27.00
2022-11-24T23:14:46.283Z,31.77
2022-11-24T23:17:50.289Z,29.25
2022-11-24T23:21:18.382Z,25.35
2022-11-24T23:24:26.894Z,30.20
2022-11-24T23:27:41.273Z,30.23
2022-11-24T23:30:43.455Z,54.93
2022-11-24T23:33:58.278Z,30.48
2022-11-24T23:37:06.287Z,30.10
2022-11-24T23:40:21.334Z,29.42
2022-11-24T23:43:23.689Z,28.10
2022-11-24T23:46:38.293Z,27.03
2022-11-24T23:49:42.183Z,29.50
2022-11-24T23:52:57.347Z,25.55
2022-11-24T23:55:59.217Z,25.42
2022-11-24T23:59:17.357Z,26.30
